Time;durP1;ratioP1;P1;durP2;ratioP2;P2;SDS_P1;SDS_P2;PMS_P1;PMS_P2;Temp;Humidity;BMP_temperature;BMP_pressure;BME280_temperature;BME280_humidity;BME280_pressure;Samples;Min_cycle;Max_cycle;Signal;HPM_P1;HPM_P2
2023/05/22 04:22:33;;;;;;;38.15;17.27;;;;;;;13.45;100.00;99843.72;5109909;27;20331;-70
2023/05/22 04:24:58;;;;;;;24.45;12.23;;;;;;;13.53;100.00;99840.88;5108541;28;20036;-71
2023/05/22 04:27:25;;;;;;;22.38;12.02;;;;;;;13.60;100.00;99836.34;5109799;28;20050;-70
2023/05/22 04:29:51;;;;;;;23.67;10.82;;;;;;;13.61;100.00;99845.19;5109409;28;20430;-71
2023/05/22 04:32:17;;;;;;;24.05;11.38;;;;;;;13.65;100.00;99839.25;5108528;28;20031;-71
2023/05/22 04:34:45;;;;;;;30.42;14.65;;;;;;;13.69;100.00;99837.81;5108474;28;20477;-71
2023/05/22 04:37:13;;;;;;;18.40;10.85;;;;;;;13.74;100.00;99847.91;5108341;28;20545;-70
2023/05/22 04:39:39;;;;;;;23.02;11.13;;;;;;;13.80;100.00;99844.41;5107974;28;20042;-71
2023/05/22 04:42:05;;;;;;;21.90;11.20;;;;;;;13.85;100.00;99839.28;5108167;28;20039;-71
2023/05/22 04:44:33;;;;;;;19.20;10.30;;;;;;;13.92;100.00;99847.31;5108197;28;20122;-71
2023/05/22 04:47:06;;;;;;;24.83;12.57;;;;;;;13.98;100.00;99851.84;5108092;28;20442;-70
2023/05/22 04:49:32;;;;;;;25.73;13.50;;;;;;;14.05;100.00;99850.00;5109114;28;20043;-70
2023/05/22 04:51:57;;;;;;;28.55;13.70;;;;;;;14.11;100.00;99847.31;5109387;28;20111;-71
2023/05/22 04:54:23;;;;;;;30.60;15.20;;;;;;;14.17;100.00;99847.53;5109362;28;20118;-71
2023/05/22 04:56:50;;;;;;;24.58;13.15;;;;;;;14.19;100.00;99848.16;5108029;28;20546;-71
2023/05/22 04:59:16;;;;;;;23.93;13.07;;;;;;;14.30;100.00;99852.88;5108025;28;20115;-71
2023/05/22 05:01:47;;;;;;;24.77;12.50;;;;;;;14.39;100.00;99852.47;5107687;28;20377;-70
2023/05/22 05:04:12;;;;;;;19.40;11.20;;;;;;;14.48;100.00;99857.66;5108078;28;20396;-71
2023/05/22 05:06:38;;;;;;;18.38;10.18;;;;;;;14.52;100.00;99862.38;5107702;28;20036;-71
2023/05/22 05:09:04;;;;;;;30.23;11.32;;;;;;;14.59;100.00;99863.19;5107425;28;20031;-54
2023/05/22 05:11:29;;;;;;;24.20;12.30;;;;;;;14.69;100.00;99860.09;5107601;28;20450;-52
2023/05/22 05:13:54;;;;;;;20.90;11.70;;;;;;;14.78;100.00;99861.50;5107634;28;20085;-53
2023/05/22 05:16:22;;;;;;;22.88;9.98;;;;;;;14.87;100.00;99856.75;5107559;28;20050;-53
2023/05/22 05:18:47;;;;;;;19.02;10.18;;;;;;;14.95;100.00;99858.38;5107267;28;20035;-52
2023/05/22 05:21:13;;;;;;;18.98;10.48;;;;;;;15.03;100.00;99858.16;5107421;28;20564;-63
2023/05/22 05:23:38;;;;;;;20.27;10.77;;;;;;;15.07;100.00;99862.88;5107524;28;20441;-64
2023/05/22 05:26:04;;;;;;;20.63;10.90;;;;;;;15.12;100.00;99860.38;5108592;28;20069;-64
2023/05/22 05:28:30;;;;;;;17.27;9.93;;;;;;;15.20;100.00;99865.53;5107062;28;20777;-64
2023/05/22 05:30:56;;;;;;;21.80;11.27;;;;;;;15.33;100.00;99872.69;5107028;28;20195;-63
2023/05/22 05:33:48;;;;;;;19.33;10.90;;;;;;;15.44;100.00;99866.63;5094242;28;20036;-64
2023/05/22 05:36:27;;;;;;;22.60;12.02;;;;;;;15.55;100.00;99862.47;5093535;28;20562;-64
2023/05/22 05:38:53;;;;;;;22.00;13.07;;;;;;;15.69;100.00;99868.59;5093309;28;20028;-64
2023/05/22 05:41:20;;;;;;;18.55;10.93;;;;;;;15.80;100.00;99869.78;5093553;28;20262;-64
2023/05/22 05:43:51;;;;;;;17.58;9.30;;;;;;;15.89;100.00;99863.94;5093546;28;20036;-64
2023/05/22 05:46:17;;;;;;;17.85;10.25;;;;;;;16.04;100.00;99866.31;5093356;28;20035;-64
2023/05/22 05:48:43;;;;;;;18.77;10.75;;;;;;;16.12;100.00;99866.06;5093240;28;20112;-64
2023/05/22 05:51:09;;;;;;;23.10;10.85;;;;;;;16.23;100.00;99867.19;5093231;28;20032;-63
2023/05/22 05:53:39;;;;;;;18.65;11.30;;;;;;;16.33;100.00;99870.22;5093418;28;20032;-65
2023/05/22 05:56:06;;;;;;;17.60;10.05;;;;;;;16.41;100.00;99872.63;5094821;28;20070;-64
2023/05/22 05:58:33;;;;;;;16.77;10.10;;;;;;;16.51;100.00;99877.50;5093150;28;20632;-65
2023/05/22 06:01:18;;;;;;;18.23;10.27;;;;;;;16.66;100.00;99877.16;5094366;28;20047;-64
2023/05/22 06:03:44;;;;;;;21.13;9.43;;;;;;;16.77;100.00;99876.47;5093124;28;20036;-64
2023/05/22 06:06:14;;;;;;;16.63;9.52;;;;;;;16.87;100.00;99879.44;5093028;28;20090;-65
2023/05/22 06:09:18;;;;;;;15.80;8.23;;;;;;;16.96;100.00;99872.75;5091714;28;20526;-65
2023/05/22 06:12:21;;;;;;;16.80;9.10;;;;;;;17.13;100.00;99891.78;5077968;28;20089;-63
2023/05/22 06:14:47;;;;;;;16.58;9.65;;;;;;;17.25;100.00;99886.47;5087176;28;20044;-63
2023/05/22 06:17:14;;;;;;;15.00;8.32;;;;;;;17.32;100.00;99890.72;5092816;28;20043;-64
2023/05/22 06:19:41;;;;;;;15.07;8.68;;;;;;;17.39;100.00;99893.34;5092660;28;20028;-64
2023/05/22 06:22:07;;;;;;;13.23;7.70;;;;;;;17.52;100.00;99890.47;5092682;28;20090;-64
2023/05/22 06:24:33;;;;;;;15.93;8.40;;;;;;;17.63;100.00;99888.91;5092775;28;20032;-64
2023/05/22 06:27:04;;;;;;;16.92;8.13;;;;;;;17.80;100.00;99897.19;5092942;28;20389;-64
2023/05/22 06:29:30;;;;;;;14.93;8.38;;;;;;;17.93;100.00;99894.31;5092352;28;20038;-64
2023/05/22 06:31:55;;;;;;;12.88;8.45;;;;;;;18.04;100.00;99898.09;5092452;28;20059;-64
2023/05/22 06:34:21;;;;;;;13.63;8.20;;;;;;;18.22;100.00;99891.81;5092707;28;20039;-64
2023/05/22 06:36:50;;;;;;;14.90;7.90;;;;;;;18.32;100.00;99894.75;5092343;28;20046;-64
2023/05/22 06:39:20;;;;;;;13.70;7.03;;;;;;;18.39;100.00;99893.59;5092129;28;20511;-64
2023/05/22 06:42:08;;;;;;;11.95;6.90;;;;;;;18.48;100.00;99893.25;5093550;28;20109;-64
2023/05/22 06:44:52;;;;;;;14.23;7.90;;;;;;;18.52;97.80;99887.16;5092788;28;20055;-64
2023/05/22 06:47:18;;;;;;;14.30;7.70;;;;;;;18.59;97.74;99893.25;5092302;28;20062;-64
2023/05/22 06:49:44;;;;;;;13.82;7.97;;;;;;;18.63;98.26;99891.72;5092016;28;20700;-64
2023/05/22 06:52:11;;;;;;;14.27;7.47;;;;;;;18.73;97.70;99895.75;5092009;28;20116;-64
2023/05/22 06:54:37;;;;;;;12.55;7.60;;;;;;;18.79;97.83;99892.13;5092554;28;20463;-64
2023/05/22 06:57:03;;;;;;;16.65;7.88;;;;;;;18.90;97.89;99892.09;5092189;28;20153;-64
2023/05/22 06:59:30;;;;;;;11.73;7.20;;;;;;;19.08;95.08;99901.13;5091915;28;20124;-64
2023/05/22 07:02:04;;;;;;;14.13;7.85;;;;;;;19.06;94.71;99895.97;5093262;28;20642;-64
2023/05/22 07:04:52;;;;;;;14.05;7.88;;;;;;;19.20;94.94;99907.31;5092965;28;20036;-64
2023/05/22 07:07:22;;;;;;;13.93;7.80;;;;;;;19.28;93.53;99903.41;5092125;28;20070;-64
2023/05/22 07:09:47;;;;;;;13.30;8.02;;;;;;;19.32;92.15;99901.91;5091540;28;20420;-64
2023/05/22 07:12:13;;;;;;;14.70;7.35;;;;;;;19.40;93.92;99901.50;5091643;28;20130;-64
2023/05/22 07:14:39;;;;;;;12.93;8.10;;;;;;;19.54;92.93;99908.28;5075286;28;20044;-65
2023/05/22 07:17:04;;;;;;;10.95;7.05;;;;;;;19.67;92.06;99908.03;5093164;28;20480;-64
2023/05/22 07:19:35;;;;;;;9.80;6.82;;;;;;;19.71;91.68;99903.78;5091750;28;20105;-64
2023/05/22 07:22:03;;;;;;;12.80;7.20;;;;;;;19.68;90.45;99906.97;5091926;28;20505;-64
2023/05/22 07:24:29;;;;;;;9.57;6.60;;;;;;;19.69;91.66;99911.31;5091597;28;20040;-64
2023/05/22 07:26:55;;;;;;;11.45;7.13;;;;;;;19.75;90.31;99920.31;5074503;28;20040;-64
2023/05/22 07:29:20;;;;;;;11.30;6.63;;;;;;;19.69;89.63;99916.72;5091121;28;20042;-64
2023/05/22 07:31:49;;;;;;;10.13;7.13;;;;;;;19.70;90.01;99918.38;5091446;28;20085;-64
2023/05/22 07:34:15;;;;;;;12.20;6.90;;;;;;;19.74;89.16;99918.69;5074585;28;20131;-60
2023/05/22 07:36:42;;;;;;;9.70;6.68;;;;;;;19.72;89.83;99923.53;5091272;28;20032;-66
2023/05/22 07:39:08;;;;;;;12.07;7.28;;;;;;;19.77;88.23;99927.16;5091017;28;20051;-65
2023/05/22 07:41:37;;;;;;;12.65;7.15;;;;;;;19.91;87.42;99924.97;5091250;28;20172;-66
2023/05/22 07:44:04;;;;;;;11.48;6.68;;;;;;;20.07;87.87;99923.34;5091174;28;20258;-66
2023/05/22 07:46:36;;;;;;;12.60;6.63;;;;;;;20.25;86.53;99919.63;5091141;28;20040;-66
2023/05/22 07:49:11;;;;;;;11.02;7.03;;;;;;;20.38;86.58;99924.72;5090894;28;20036;-65
2023/05/22 07:51:39;;;;;;;10.90;6.57;;;;;;;20.67;85.52;99922.78;5090949;28;20032;-66
2023/05/22 07:54:06;;;;;;;13.02;6.80;;;;;;;20.89;85.52;99919.31;5074333;28;20036;-66
2023/05/22 07:56:33;;;;;;;9.52;6.18;;;;;;;21.01;84.08;99912.72;5090882;28;20040;-66
2023/05/22 07:58:59;;;;;;;10.18;6.68;;;;;;;21.10;83.33;99921.22;5090818;28;20044;-65
2023/05/22 08:01:25;;;;;;;10.15;5.70;;;;;;;21.17;83.65;99916.44;5092273;28;20114;-65
2023/05/22 08:03:50;;;;;;;9.07;5.50;;;;;;;21.26;83.25;99917.66;5092244;28;20122;-65
2023/05/22 08:06:16;;;;;;;10.60;6.57;;;;;;;21.30;81.58;99926.13;5092155;28;20087;-65
2023/05/22 08:08:42;;;;;;;10.07;6.40;;;;;;;21.22;81.52;99921.13;5091925;28;20044;-65
2023/05/22 08:11:07;;;;;;;7.65;5.50;;;;;;;21.31;80.66;99925.03;5091879;28;20047;-66
2023/05/22 08:13:33;;;;;;;9.80;6.22;;;;;;;21.42;81.65;99923.28;5090732;28;20131;-65
2023/05/22 08:15:58;;;;;;;9.88;5.75;;;;;;;21.51;79.26;99922.59;5091892;28;20079;-66
2023/05/22 08:18:26;;;;;;;8.02;5.40;;;;;;;21.67;79.87;99927.13;5091798;28;20075;-66
2023/05/22 08:20:52;;;;;;;8.38;5.80;;;;;;;21.84;79.84;99921.63;5092093;28;20497;-65
2023/05/22 08:23:18;;;;;;;7.80;5.22;;;;;;;22.05;78.09;99927.25;5091934;28;20574;-65
2023/05/22 08:25:43;;;;;;;8.15;5.78;;;;;;;22.27;78.55;99924.50;5091934;28;20040;-65
2023/05/22 08:28:09;;;;;;;8.63;5.80;;;;;;;22.54;76.83;99921.72;5092001;28;20094;-66
2023/05/22 08:30:35;;;;;;;9.23;5.75;;;;;;;22.82;72.01;99917.84;5091672;28;20360;-65
2023/05/22 08:33:01;;;;;;;10.88;6.15;;;;;;;22.84;69.03;99916.53;5091897;28;20082;-65
2023/05/22 08:35:27;;;;;;;8.77;6.10;;;;;;;22.84;69.89;99919.25;5090637;28;20072;-64
2023/05/22 08:37:52;;;;;;;7.75;5.60;;;;;;;22.90;73.44;99907.38;5091812;28;20047;-65
2023/05/22 08:40:19;;;;;;;8.20;5.07;;;;;;;23.02;71.05;99916.13;5091546;28;20040;-65
2023/05/22 08:42:44;;;;;;;7.28;5.50;;;;;;;23.06;71.89;99919.13;5091931;28;20064;-65
2023/05/22 08:45:10;;;;;;;8.73;5.50;;;;;;;22.99;69.64;99915.84;5091712;28;20075;-65
2023/05/22 08:47:36;;;;;;;8.85;5.55;;;;;;;22.86;71.54;99916.25;5091662;28;20047;-65
2023/05/22 08:50:02;;;;;;;7.78;5.50;;;;;;;23.05;72.84;99919.41;5091516;28;20090;-65
2023/05/22 08:52:46;;;;;;;9.05;5.43;;;;;;;23.18;71.29;99916.22;5091606;28;20040;-65
2023/05/22 08:55:12;;;;;;;8.82;5.88;;;;;;;23.28;70.38;99916.28;5091815;28;20047;-65
2023/05/22 08:57:37;;;;;;;8.05;5.60;;;;;;;23.41;71.99;99921.22;5091652;28;20036;-65
2023/05/22 09:00:04;;;;;;;8.15;5.53;;;;;;;23.58;70.20;99917.47;5091432;28;20177;-65
2023/05/22 09:02:30;;;;;;;15.52;6.82;;;;;;;23.65;66.36;99912.63;5091597;28;20036;-65
2023/05/22 09:04:56;;;;;;;9.23;6.40;;;;;;;23.74;65.96;99919.19;5091591;28;20039;-65
2023/05/22 09:07:23;;;;;;;8.00;5.80;;;;;;;23.78;66.27;99917.53;5092055;28;20036;-65
2023/05/22 09:09:49;;;;;;;10.02;6.13;;;;;;;23.78;67.04;99917.53;5095179;28;20032;-65
2023/05/22 09:12:15;;;;;;;7.70;5.65;;;;;;;23.69;66.84;99921.88;5095200;28;20386;-65
2023/05/22 09:14:42;;;;;;;6.65;4.63;;;;;;;23.64;67.98;99919.97;5095513;28;20459;-65
2023/05/22 09:17:10;;;;;;;7.47;5.68;;;;;;;23.78;69.82;99917.53;5095162;28;20063;-65
2023/05/22 09:19:36;;;;;;;6.97;5.50;;;;;;;23.94;68.53;99924.66;5094927;28;20075;-65
2023/05/22 09:22:03;;;;;;;7.45;5.38;;;;;;;23.81;66.80;99922.47;5095089;28;20056;-65
2023/05/22 09:24:28;;;;;;;7.65;4.97;;;;;;;24.02;68.31;99918.69;5094864;28;20032;-65
2023/05/22 09:26:54;;;;;;;7.28;5.30;;;;;;;24.29;67.40;99921.16;5095158;28;20046;-65
2023/05/22 09:29:21;;;;;;;7.57;5.22;;;;;;;24.38;66.27;99913.28;5093511;28;20044;-65
2023/05/22 09:31:46;;;;;;;7.28;5.32;;;;;;;24.12;65.91;99917.06;5095550;28;20506;-64
2023/05/22 09:34:14;;;;;;;7.72;5.65;;;;;;;24.17;65.24;99919.78;5093642;28;20036;-65
2023/05/22 09:36:41;;;;;;;9.00;5.85;;;;;;;24.24;66.26;99917.63;5094911;28;20128;-65
2023/05/22 09:39:06;;;;;;;7.90;6.20;;;;;;;24.32;65.54;99911.63;5094612;28;20579;-65
2023/05/22 09:41:39;;;;;;;7.22;5.75;;;;;;;24.30;64.43;99911.91;5094796;28;20115;-65
2023/05/22 09:44:14;;;;;;;8.95;6.22;;;;;;;24.46;64.03;99911.97;5094792;28;20035;-65
2023/05/22 09:46:42;;;;;;;9.20;5.72;;;;;;;24.56;63.49;99907.31;5094600;28;20075;-64
2023/05/22 09:49:08;;;;;;;9.98;5.10;;;;;;;24.81;64.14;99909.19;5094429;28;20024;-65
2023/05/22 09:51:35;;;;;;;7.07;4.97;;;;;;;25.14;61.56;99910.50;5094629;28;20465;-65
2023/05/22 09:54:02;;;;;;;6.43;5.10;;;;;;;25.51;60.32;99911.19;5094642;28;20040;-65
2023/05/22 09:56:30;;;;;;;6.70;5.00;;;;;;;25.60;64.23;99910.31;5094427;28;20118;-64
2023/05/22 09:58:57;;;;;;;7.05;5.00;;;;;;;25.55;63.00;99909.50;5094041;28;20028;-65
2023/05/22 10:01:24;;;;;;;6.30;4.40;;;;;;;25.57;60.13;99910.06;5094372;28;20085;-65
2023/05/22 10:03:53;;;;;;;6.75;5.05;;;;;;;25.66;59.50;99900.19;5094458;28;20039;-65
2023/05/22 10:06:20;;;;;;;6.28;4.53;;;;;;;25.60;62.19;99898.59;5094253;28;20507;-65
2023/05/22 10:08:52;;;;;;;6.75;4.85;;;;;;;25.47;60.66;99899.19;5094050;28;20043;-65
2023/05/22 10:11:18;;;;;;;6.25;5.03;;;;;;;25.43;60.27;99898.94;5094199;28;20042;-66
2023/05/22 10:13:46;;;;;;;7.40;5.68;;;;;;;25.21;60.96;99895.75;5094152;28;20114;-66
2023/05/22 10:16:14;;;;;;;6.10;5.43;;;;;;;25.28;58.20;99899.00;5094111;28;20040;-65
2023/05/22 10:18:44;;;;;;;8.48;5.93;;;;;;;25.14;60.86;99905.03;5093657;28;20035;-65
2023/05/22 10:21:11;;;;;;;7.07;5.40;;;;;;;25.28;60.37;99899.00;5093989;28;20036;-65
2023/05/22 10:23:37;;;;;;;;;;;;;;;25.18;60.59;99897.13;5093263;28;20036;-65
2023/05/22 10:26:04;;;;;;;6.72;5.20;;;;;;;25.05;61.12;99890.38;5093816;28;19915;-64
2023/05/22 10:28:37;;;;;;;7.18;5.53;;;;;;;25.15;59.15;99893.03;5093643;28;20032;-65
2023/05/22 10:31:13;;;;;;;7.03;5.63;;;;;;;25.23;58.74;99894.38;5093853;28;20047;-64
2023/05/22 10:34:04;;;;;;;6.82;5.50;;;;;;;25.39;57.99;99887.78;5093754;28;20097;-65
2023/05/22 10:37:01;;;;;;;6.60;5.28;;;;;;;25.60;57.39;99876.75;5093615;28;20446;-65
2023/05/22 10:39:53;;;;;;;6.85;4.82;;;;;;;26.14;59.18;99875.88;5093586;28;20036;-65
2023/05/22 10:42:19;;;;;;;6.55;5.20;;;;;;;26.58;54.54;99861.34;5071743;28;20029;-66
2023/05/22 10:44:47;;;;;;;7.13;5.30;;;;;;;27.19;53.76;99864.25;5075834;28;20044;-65
2023/05/22 10:47:13;;;;;;;6.40;5.15;;;;;;;27.63;50.18;99862.28;5092990;28;20043;-65
2023/05/22 10:49:45;;;;;;;8.00;5.75;;;;;;;27.83;49.14;99862.81;5093225;28;20047;-65
2023/05/22 10:52:13;;;;;;;7.50;4.93;;;;;;;28.13;48.39;99861.53;5093479;28;20082;-65
2023/05/22 10:54:44;;;;;;;6.18;5.13;;;;;;;28.27;48.85;99861.59;5093369;28;20115;-66
2023/05/22 10:57:15;;;;;;;9.57;6.35;;;;;;;28.74;48.83;99851.44;5093352;28;20039;-65
2023/05/22 10:59:41;;;;;;;6.28;5.07;;;;;;;28.95;46.80;99854.63;5093174;28;20071;-65
2023/05/22 11:02:18;;;;;;;6.20;5.40;;;;;;;28.55;45.84;99847.97;5093326;28;20444;-65
2023/05/22 11:04:44;;;;;;;7.07;5.05;;;;;;;29.36;44.88;99843.66;5093344;28;20408;-64
2023/05/22 11:07:12;;;;;;;8.45;5.70;;;;;;;29.49;46.32;99847.47;5093106;28;20050;-65
2023/05/22 11:09:46;;;;;;;9.13;5.93;;;;;;;30.27;45.47;99843.47;5092850;28;20078;-65
2023/05/22 11:12:20;;;;;;;6.65;5.15;;;;;;;30.59;44.23;99838.78;5092965;28;20056;-65
2023/05/22 11:15:01;;;;;;;7.05;5.57;;;;;;;30.57;42.05;99831.97;5092923;28;20040;-65
2023/05/22 11:17:28;;;;;;;6.82;5.63;;;;;;;30.71;42.42;99829.97;5092903;28;20032;-65
2023/05/22 11:19:59;;;;;;;;;;;;;;;30.56;41.55;99825.66;5093148;28;20042;-64
2023/05/22 11:22:33;;;;;;;7.35;5.10;;;;;;;30.67;43.67;99806.97;5092772;28;19920;-65
2023/05/22 11:24:58;;;;;;;7.18;5.72;;;;;;;31.00;44.78;99816.50;5092841;28;20036;-65
2023/05/22 11:27:24;;;;;;;5.97;4.90;;;;;;;31.04;42.52;99820.22;5092740;28;20469;-65
2023/05/22 11:29:50;;;;;;;5.80;5.17;;;;;;;31.01;39.64;99820.84;5092189;28;20084;-65
2023/05/22 11:32:19;;;;;;;6.50;5.67;;;;;;;31.08;43.57;99820.38;5092393;28;20044;-64
2023/05/22 11:34:46;;;;;;;5.38;4.85;;;;;;;31.62;40.52;99815.47;5092679;28;20305;-66
2023/05/22 11:37:11;;;;;;;5.75;4.75;;;;;;;31.22;40.27;99815.56;5091539;28;20040;-66
2023/05/22 11:39:37;;;;;;;5.53;4.93;;;;;;;31.58;41.35;99809.81;5092236;28;20051;-66
2023/05/22 11:42:03;;;;;;;5.53;4.87;;;;;;;32.34;39.86;99806.53;5092475;28;20123;-66
2023/05/22 11:44:29;;;;;;;5.82;4.82;;;;;;;32.49;39.41;99802.41;5092489;28;20032;-65
2023/05/22 11:46:54;;;;;;;5.47;4.97;;;;;;;32.54;39.33;99801.41;5092360;28;20044;-65
2023/05/22 11:49:22;;;;;;;6.07;5.17;;;;;;;32.47;39.79;99809.38;5092237;28;20557;-65
2023/05/22 11:51:48;;;;;;;5.57;4.90;;;;;;;32.71;36.76;99798.59;5092336;28;20134;-65
2023/05/22 11:54:17;;;;;;;5.90;4.80;;;;;;;32.72;37.68;99797.44;5092314;28;20111;-66
2023/05/22 11:56:44;;;;;;;6.05;4.60;;;;;;;32.59;36.40;99796.53;5092337;28;20054;-66
2023/05/22 11:59:09;;;;;;;;;;;;;;;32.05;37.03;99790.66;5083507;28;20031;-65
2023/05/22 12:01:35;;;;;;;5.77;4.27;;;;;;;32.66;37.90;99799.56;5092276;28;19915;-65
2023/05/22 12:04:01;;;;;;;5.80;4.60;;;;;;;33.42;35.68;99789.59;5092168;28;20485;-65
2023/05/22 12:06:26;;;;;;;5.75;5.13;;;;;;;33.90;34.89;99799.25;5092016;28;20031;-65
2023/05/22 12:08:52;;;;;;;5.67;4.33;;;;;;;34.14;34.89;99804.06;5091814;28;20039;-66
2023/05/22 12:11:18;;;;;;;6.47;5.10;;;;;;;34.04;32.89;99790.69;5092300;28;20036;-65
2023/05/22 12:13:44;;;;;;;5.07;4.40;;;;;;;34.08;35.11;99797.94;5092119;28;20040;-65
2023/05/22 12:16:23;;;;;;;5.57;4.97;;;;;;;33.72;35.75;99796.66;5092100;28;20051;-66
2023/05/22 12:18:53;;;;;;;5.70;5.10;;;;;;;33.38;35.98;99792.19;5091682;28;20050;-66
2023/05/22 12:21:19;;;;;;;4.97;4.55;;;;;;;33.01;36.49;99799.44;5091888;28;20480;-65
2023/05/22 12:23:49;;;;;;;5.25;4.68;;;;;;;33.48;33.81;99791.00;5092079;28;20047;-65
2023/05/22 12:26:15;;;;;;;6.30;4.80;;;;;;;33.58;36.01;99800.81;5091967;28;20210;-66
2023/05/22 12:28:41;;;;;;;4.63;4.10;;;;;;;33.43;35.89;99796.72;5091704;28;20047;-66
2023/05/22 12:31:06;;;;;;;5.00;4.50;;;;;;;34.07;34.87;99806.59;5091710;28;20117;-65
2023/05/22 12:33:32;;;;;;;7.20;4.73;;;;;;;34.37;35.42;99802.53;5092032;28;20042;-65
2023/05/22 12:35:57;;;;;;;4.63;4.00;;;;;;;34.93;32.36;99796.50;5091865;28;20087;-65
2023/05/22 12:38:28;;;;;;;5.43;4.73;;;;;;;34.96;31.54;99793.03;5091613;28;20071;-65
2023/05/22 12:40:54;;;;;;;4.20;3.80;;;;;;;34.99;31.28;99779.31;5092238;28;20063;-64
2023/05/22 12:43:22;;;;;;;6.40;4.57;;;;;;;34.98;31.68;99783.22;5094580;28;20036;-65
2023/05/22 12:45:47;;;;;;;4.22;3.78;;;;;;;35.42;30.28;99780.63;5095760;28;20082;-65
2023/05/22 12:48:13;;;;;;;5.70;4.07;;;;;;;35.04;31.75;99786.56;5095906;28;20032;-65
2023/05/22 12:50:39;;;;;;;6.50;4.00;;;;;;;34.39;32.73;99780.06;5095760;28;20036;-66
2023/05/22 12:53:05;;;;;;;8.07;4.53;;;;;;;34.08;34.17;99772.28;5095888;28;20039;-65
2023/05/22 12:55:31;;;;;;;4.00;3.60;;;;;;;34.22;31.60;99772.78;5095755;28;20442;-65
2023/05/22 12:57:56;;;;;;;4.07;3.53;;;;;;;33.92;31.16;99769.38;5095863;28;20130;-65
2023/05/22 13:00:22;;;;;;;4.53;3.33;;;;;;;34.86;30.65;99771.34;5095413;28;20082;-65
2023/05/22 13:02:48;;;;;;;5.47;3.97;;;;;;;34.35;29.93;99766.09;5095586;28;20035;-65
2023/05/22 13:05:13;;;;;;;4.73;4.27;;;;;;;34.06;31.27;99758.81;5095461;28;20951;-65
2023/05/22 13:07:38;;;;;;;4.97;4.27;;;;;;;32.51;32.62;99760.72;5095509;28;20032;-65
2023/05/22 13:10:04;;;;;;;6.10;4.27;;;;;;;32.78;31.98;99757.50;5095238;28;20510;-65
2023/05/22 13:12:31;;;;;;;4.80;4.30;;;;;;;32.05;32.80;99757.63;5095257;28;20052;-65
2023/05/22 13:15:00;;;;;;;6.13;4.53;;;;;;;32.26;33.20;99743.13;5092218;28;20038;-65
2023/05/22 13:17:25;;;;;;;5.15;3.88;;;;;;;31.44;32.69;99751.38;5089458;28;20054;-65
2023/05/22 13:19:53;;;;;;;4.10;3.57;;;;;;;32.21;33.97;99735.03;5095160;28;20493;-65
2023/05/22 13:22:18;;;;;;;4.20;3.80;;;;;;;32.43;34.44;99739.53;5095039;28;20063;-65
2023/05/22 13:24:43;;;;;;;4.73;4.10;;;;;;;32.37;34.74;99733.41;5095105;28;20091;-65
2023/05/22 13:27:09;;;;;;;4.70;3.77;;;;;;;32.03;34.41;99735.13;5095082;28;20126;-65
2023/05/22 13:29:34;;;;;;;4.20;3.47;;;;;;;31.90;33.53;99732.56;5094691;28;20032;-65
2023/05/22 13:32:00;;;;;;;4.83;3.60;;;;;;;31.78;36.11;99727.69;5094998;28;20067;-65
2023/05/22 13:34:27;;;;;;;4.38;3.60;;;;;;;31.18;33.99;99728.53;5094997;28;20047;-65
2023/05/22 13:36:53;;;;;;;6.63;3.90;;;;;;;30.95;34.16;99725.09;5094689;28;20042;-66
2023/05/22 13:39:18;;;;;;;5.03;3.67;;;;;;;30.47;34.05;99728.66;5094709;28;20036;-65
2023/05/22 13:41:44;;;;;;;5.27;3.30;;;;;;;30.80;34.25;99718.13;5094531;28;20042;-65
2023/05/22 13:44:09;;;;;;;3.60;2.80;;;;;;;30.88;33.31;99716.50;5094793;28;20028;-66
2023/05/22 13:46:35;;;;;;;4.23;3.00;;;;;;;31.03;33.60;99714.09;5094754;28;20043;-65
2023/05/22 13:49:00;;;;;;;4.13;3.50;;;;;;;30.99;36.55;99710.38;5094465;28;20511;-65
2023/05/22 13:51:26;;;;;;;3.92;3.20;;;;;;;30.94;36.00;99713.28;5094595;28;20334;-65
2023/05/22 13:53:51;;;;;;;3.78;3.25;;;;;;;30.63;36.04;99716.09;5092849;28;20055;-65
2023/05/22 13:56:16;;;;;;;3.60;3.13;;;;;;;30.39;34.92;99721.22;5094531;28;20032;-65
2023/05/22 13:58:42;;;;;;;3.13;2.80;;;;;;;30.61;34.55;99709.31;5094169;28;20420;-65
2023/05/22 14:01:08;;;;;;;3.70;3.30;;;;;;;30.70;33.84;99708.22;5094472;28;20036;-66
2023/05/22 14:03:33;;;;;;;3.33;3.03;;;;;;;30.56;33.46;99707.50;5094482;28;20119;-65
2023/05/22 14:05:59;;;;;;;3.97;3.30;;;;;;;30.35;35.24;99704.53;5094308;28;20144;-65
2023/05/22 14:08:24;;;;;;;3.92;3.50;;;;;;;30.22;36.04;99717.25;5094205;28;20047;-65
2023/05/22 14:10:49;;;;;;;4.57;3.35;;;;;;;30.22;37.33;99705.47;5094231;28;20090;-65
2023/05/22 14:13:15;;;;;;;4.03;3.42;;;;;;;30.19;37.92;99704.16;5094215;28;20032;-65
2023/05/22 14:15:41;;;;;;;3.83;2.88;;;;;;;30.19;36.54;99711.56;5094053;28;20132;-65
2023/05/22 14:18:07;;;;;;;5.88;3.30;;;;;;;30.11;36.85;99706.84;5094169;28;20044;-65
2023/05/22 14:20:32;;;;;;;4.15;3.42;;;;;;;29.98;38.86;99703.03;5093735;28;20036;-65
2023/05/22 14:22:58;;;;;;;3.88;3.30;;;;;;;29.86;37.42;99705.56;5094017;28;20043;-65
2023/05/22 14:25:24;;;;;;;4.00;3.53;;;;;;;29.83;36.07;99711.69;5093992;28;20044;-65
2023/05/22 14:27:50;;;;;;;4.18;3.10;;;;;;;29.59;35.31;99718.31;5093902;28;20032;-65
2023/05/22 14:30:15;;;;;;;3.50;3.10;;;;;;;29.48;35.85;99711.44;5093641;28;20047;-65
2023/05/22 14:32:41;;;;;;;6.07;3.40;;;;;;;29.32;36.42;99718.41;5093844;28;20032;-66
2023/05/22 14:35:07;;;;;;;3.90;3.05;;;;;;;29.43;36.97;99717.03;5093864;28;20036;-65
2023/05/22 14:37:33;;;;;;;3.85;3.20;;;;;;;29.44;38.38;99710.44;5093792;28;20036;-65
2023/05/22 14:39:58;;;;;;;4.55;3.25;;;;;;;29.43;38.74;99714.31;5093467;28;20378;-64
2023/05/22 14:42:23;;;;;;;3.90;3.17;;;;;;;29.45;39.29;99714.78;5093665;28;20549;-66
2023/05/22 14:44:49;;;;;;;3.55;3.25;;;;;;;29.55;37.37;99719.25;5093684;28;20036;-65
2023/05/22 14:47:14;;;;;;;3.72;2.95;;;;;;;29.39;36.53;99716.03;5093552;28;20126;-65
2023/05/22 14:49:40;;;;;;;3.50;2.90;;;;;;;29.33;36.53;99715.34;5093340;28;20056;-65
2023/05/22 14:52:05;;;;;;;3.95;3.40;;;;;;;29.23;36.60;99698.34;5093403;28;20032;-66
2023/05/22 14:54:30;;;;;;;4.25;3.08;;;;;;;29.45;36.54;99710.09;5093483;28;20122;-65
2023/05/22 14:56:56;;;;;;;3.25;2.78;;;;;;;29.26;38.30;99705.94;5093298;28;20040;-65
2023/05/22 14:59:21;;;;;;;4.00;2.90;;;;;;;29.11;36.13;99715.31;5092999;28;20044;-65
2023/05/22 15:01:49;;;;;;;4.18;3.03;;;;;;;29.09;36.95;99718.38;5093267;28;20104;-65
2023/05/22 15:04:17;;;;;;;3.53;3.00;;;;;;;29.11;37.92;99715.31;5093204;28;20042;-66
2023/05/22 15:06:43;;;;;;;3.35;2.88;;;;;;;29.12;36.94;99705.97;5092280;28;20032;-65
2023/05/22 15:09:09;;;;;;;5.65;3.30;;;;;;;29.16;36.64;99701.50;5092763;28;20031;-64
2023/05/22 15:11:34;;;;;;;3.70;2.75;;;;;;;29.23;36.73;99701.06;5092958;28;20489;-67
2023/05/22 15:14:00;;;;;;;3.47;3.00;;;;;;;29.02;35.85;99695.25;5093059;28;20028;-67
2023/05/22 15:16:26;;;;;;;3.60;2.97;;;;;;;29.02;37.18;99689.78;5092927;28;20126;-66
2023/05/22 15:18:52;;;;;;;3.65;2.90;;;;;;;28.98;37.24;99696.97;5092738;28;20047;-67
2023/05/22 15:21:17;;;;;;;3.50;3.20;;;;;;;28.99;37.55;99699.41;5092842;28;20131;-66
2023/05/22 15:23:42;;;;;;;3.65;3.15;;;;;;;29.05;38.34;99705.59;5092831;28;20044;-66
2023/05/22 15:26:08;;;;;;;3.80;3.05;;;;;;;28.97;37.39;99700.84;5092762;28;20036;-66
2023/05/22 15:28:33;;;;;;;3.35;2.90;;;;;;;28.91;37.36;99694.63;5092721;28;20036;-66
2023/05/22 15:30:58;;;;;;;3.90;3.50;;;;;;;28.81;37.91;99705.81;5092634;28;20036;-66
2023/05/22 15:33:24;;;;;;;3.53;2.70;;;;;;;28.71;37.63;99709.59;5092785;28;20035;-66
2023/05/22 15:35:50;;;;;;;4.60;3.30;;;;;;;28.62;38.34;99709.47;5092548;28;20050;-66
2023/05/22 15:38:16;;;;;;;4.88;3.40;;;;;;;28.53;38.98;99718.72;5092370;28;20038;-66
2023/05/22 15:40:42;;;;;;;4.47;3.22;;;;;;;28.50;39.55;99716.63;5092538;28;20114;-66
2023/05/22 15:43:08;;;;;;;4.20;2.92;;;;;;;28.39;38.41;99724.22;5092491;28;20040;-66
2023/05/22 15:45:37;;;;;;;3.58;2.88;;;;;;;28.31;38.44;99714.78;5092465;28;20036;-66
2023/05/22 15:48:06;;;;;;;4.28;3.20;;;;;;;27.94;40.42;99712.16;5092311;28;20496;-66
2023/05/22 15:50:32;;;;;;;4.38;3.60;;;;;;;27.94;41.69;99715.72;5092047;28;20069;-67
2023/05/22 15:52:58;;;;;;;4.43;3.92;;;;;;;27.88;42.89;99722.38;5092393;28;20040;-66